Portsmouth, NH (03803)

8:35 AM EST on December 28, 2014 (GMT -0500)
Maplewood Avenue | Change Station
CLOSE
Current Station
Personal Weather Station
Location: Portsmouth, NH
Elevation: 60 ft
Nearby Weather Stations

Elev 60 ft 43.08 °N, 70.77 °W | Updated 32 seconds ago

Rain
Rain
43.5 °F
Feels Like 44 °F
N
2.0
Wind Variable Wind from WSW
Gusts 2.0 mph

Today
High -- | Low -- °F
--% Chance of Precip.
Yesterday
High -- | Low -- °F
Precip. -- in
7:14 AM 4:15 PM
Waxing Crescent, 48% visible
Pressure 29.78 in
Visibility 5.0 miles
Clouds Overcast 6500 ft
Windchill 44 °F
Dew Point 40 °F
Humidity 86%
Rainfall 0.07 in
Snow Depth Not available.
UV 0 out of 12
Pollen .10 out of 12
Air Quality Not available.
Flu Activity Not available.
METAR KPSM 281258Z 19008KT 5SM -RA BR OVC065 06/03 A2976 RMK AO2A SLP082 P0001 T00640030

More Conditions Fewer Conditions

Pressure 29.78 in
Visibility 5.0 miles
Clouds Overcast 6500 ft
Windchill 44 °F
Dew Point 40 °F
Humidity 86%
Rainfall 0.07 in
Snow Depth Not available.
UV 0 out of 12
Pollen .10 out of 12
Air Quality Not available.
Flu Activity Not available.
METAR KPSM 281258Z 19008KT 5SM -RA BR OVC065 06/03 A2976 RMK AO2A SLP082 P0001 T00640030

More Conditions Fewer Conditions

10-Day Weather Forecast

Almanac

Astronomy

Dec. 28, 2014 Rise Set
Actual Time
Civil Twilight
Nautical Twilight
Astronomical Twilight
Moon
Length of Visible Light
Length of Day
Tomorrow will be .
, % of the Moon is Illuminated

Today's Extremes

State Highs State Lows

Community

WunderPhotos

Upload Photos

1,781,263 photos uploaded!

WunderBlogs® & News

Nearby

Air Quality

  Air Quality AQ Index Pollutant
Not available.

Snow Depth

Station Depth Elevation

Earthquake Activity

City Distance Mag. Time & Date
Minimum magnitude displayed is 2.5.

Coastal Water Temperatures

Place Temperature

Nearby Weather Stations